Time;durP1;ratioP1;P1;durP2;ratioP2;P2;SDS_P1;SDS_P2;PMS_P1;PMS_P2;Temp;Humidity;BMP_temperature;BMP_pressure;BME280_temperature;BME280_humidity;BME280_pressure;Samples;Min_cycle;Max_cycle;Signal;HPM_P1;HPM_P2
2023/10/14 00:02:30;;;;;;;28.60;27.00;;;;;;;9.30;100.00;101529.88;5018915;28;20563;-75
2023/10/14 00:04:58;;;;;;;28.55;26.85;;;;;;;9.24;100.00;101526.09;5019803;28;20516;-75
2023/10/14 00:07:26;;;;;;;30.30;28.38;;;;;;;9.29;100.00;101526.41;5023534;28;20509;-77
2023/10/14 00:09:57;;;;;;;27.38;25.67;;;;;;;9.51;100.00;101534.50;5015744;28;20133;-76
2023/10/14 00:12:28;;;;;;;28.50;26.40;;;;;;;9.65;100.00;101528.38;5018868;28;20057;-77
2023/10/14 00:15:05;;;;;;;31.75;29.75;;;;;;;9.74;100.00;101531.78;5016105;28;20057;-77
2023/10/14 00:17:36;;;;;;;28.38;26.67;;;;;;;9.60;100.00;101531.59;5024611;28;20060;-75
2023/10/14 00:20:05;;;;;;;27.85;26.10;;;;;;;9.15;100.00;101533.28;5017592;28;20446;-74
2023/10/14 00:22:38;;;;;;;27.60;25.60;;;;;;;9.66;100.00;101527.41;5022089;28;20073;-75
2023/10/14 00:25:19;;;;;;;30.30;28.40;;;;;;;9.55;100.00;101528.66;5013346;28;20112;-74
2023/10/14 00:27:50;;;;;;;27.80;26.10;;;;;;;9.43;100.00;101521.31;5021627;28;20049;-74
2023/10/14 00:30:31;;;;;;;27.80;26.00;;;;;;;9.29;100.00;101521.09;5019997;28;20528;-76
2023/10/14 00:33:06;;;;;;;28.15;26.15;;;;;;;9.07;100.00;101530.69;5024477;28;20072;-77
2023/10/14 00:35:39;;;;;;;27.88;26.08;;;;;;;8.81;100.00;101525.72;5020200;28;20060;-75
2023/10/14 00:38:20;;;;;;;30.75;27.83;;;;;;;9.30;100.00;101524.56;5012523;28;20064;-75
2023/10/14 00:40:47;;;;;;;28.45;26.55;;;;;;;8.64;100.00;101524.97;5017458;28;20081;-75
2023/10/14 00:43:14;;;;;;;28.15;26.45;;;;;;;8.90;100.00;101521.19;5027909;28;20049;-75
2023/10/14 00:45:44;;;;;;;30.60;28.70;;;;;;;8.94;100.00;101518.00;5020057;28;20053;-75
2023/10/14 00:48:19;;;;;;;30.00;28.08;;;;;;;8.82;100.00;101513.28;5021944;28;20433;-77
2023/10/14 00:50:52;;;;;;;26.70;25.00;;;;;;;8.94;100.00;101510.06;5012812;28;20525;-75
2023/10/14 00:53:21;;;;;;;30.85;29.15;;;;;;;9.03;100.00;101510.84;5014396;28;20082;-74
2023/10/14 00:55:54;;;;;;;29.80;28.00;;;;;;;8.96;100.00;101504.59;5026652;28;20586;-75
2023/10/14 00:58:23;;;;;;;30.30;28.42;;;;;;;8.92;100.00;101501.47;5011261;28;20054;-75
2023/10/14 01:01:01;;;;;;;27.85;26.15;;;;;;;8.88;100.00;101497.53;5029444;28;20050;-76
2023/10/14 01:03:31;;;;;;;30.48;28.52;;;;;;;8.65;100.00;101500.16;5037033;28;20048;-74
2023/10/14 01:06:06;;;;;;;30.17;28.08;;;;;;;8.57;100.00;101502.03;5027964;28;20437;-77
2023/10/14 01:08:42;;;;;;;32.28;30.27;;;;;;;8.70;100.00;101494.31;5027743;28;20053;-76
2023/10/14 01:11:09;;;;;;;30.17;27.73;;;;;;;8.75;100.00;101488.53;5015222;28;20075;-77
2023/10/14 01:13:52;;;;;;;29.80;28.00;;;;;;;8.64;100.00;101485.25;5027799;28;20059;-76
2023/10/14 01:16:36;;;;;;;32.90;30.60;;;;;;;8.59;100.00;101487.59;5018197;28;20053;-78
2023/10/14 01:19:04;;;;;;;30.75;28.90;;;;;;;8.54;100.00;101484.66;5023314;28;20144;-76
2023/10/14 01:21:38;;;;;;;30.13;28.23;;;;;;;8.37;100.00;101483.03;5021500;28;20659;-75
2023/10/14 01:24:15;;;;;;;38.25;29.50;;;;;;;8.33;100.00;101485.22;5029019;28;20159;-74
2023/10/14 01:26:51;;;;;;;31.83;29.98;;;;;;;8.49;100.00;101479.03;5024346;28;20479;-75
2023/10/14 01:29:25;;;;;;;31.67;29.60;;;;;;;8.45;100.00;101481.22;5028327;28;20053;-76
2023/10/14 01:32:09;;;;;;;31.23;29.33;;;;;;;8.56;100.00;101479.16;5019809;28;20042;-75
2023/10/14 01:34:55;;;;;;;28.05;26.15;;;;;;;8.36;100.00;101479.56;5023438;28;20471;-75
2023/10/14 01:37:26;;;;;;;34.92;32.90;;;;;;;8.37;100.00;101477.75;5027209;28;20487;-75
2023/10/14 01:40:08;;;;;;;30.30;28.23;;;;;;;8.45;100.00;101475.09;5030059;28;20049;-75
2023/10/14 01:42:36;;;;;;;30.40;28.50;;;;;;;8.53;100.00;101471.56;5022516;28;20096;-75
2023/10/14 01:45:05;;;;;;;32.47;30.48;;;;;;;8.54;100.00;101468.75;5021458;28;20448;-75
2023/10/14 01:47:33;;;;;;;35.33;33.40;;;;;;;8.46;100.00;101474.91;5026086;28;20045;-75
2023/10/14 01:50:01;;;;;;;43.55;40.85;;;;;;;8.52;100.00;101467.28;5029198;28;20061;-74
2023/10/14 01:52:29;;;;;;;28.08;25.80;;;;;;;8.70;100.00;101467.84;5041856;28;20045;-75
2023/10/14 01:54:57;;;;;;;30.02;28.08;;;;;;;8.74;100.00;101469.13;5023620;28;20052;-74
2023/10/14 01:57:25;;;;;;;30.10;28.15;;;;;;;8.21;100.00;101468.06;5029458;28;20414;-75
2023/10/14 01:59:52;;;;;;;32.30;30.30;;;;;;;8.73;100.00;101456.91;5029074;28;20084;-74
2023/10/14 02:02:21;;;;;;;47.08;44.47;;;;;;;8.87;100.00;101461.44;5019799;28;20050;-77
2023/10/14 02:04:56;;;;;;;40.00;37.70;;;;;;;8.68;100.00;101457.44;5030303;28;20046;-77
2023/10/14 02:07:32;;;;;;;36.38;34.13;;;;;;;8.83;100.00;101464.59;5013154;28;20522;-78
2023/10/14 02:10:03;;;;;;;39.97;37.67;;;;;;;8.44;100.00;101463.69;5019653;28;20050;-78
2023/10/14 02:12:46;;;;;;;51.78;48.78;;;;;;;8.53;100.00;101456.50;5029505;28;20077;-77
2023/10/14 02:15:14;;;;;;;50.67;47.97;;;;;;;8.43;100.00;101459.38;5022505;28;20056;-76
2023/10/14 02:17:47;;;;;;;38.78;36.35;;;;;;;8.30;100.00;101456.44;5031588;28;20053;-78
2023/10/14 02:20:27;;;;;;;35.67;33.58;;;;;;;8.53;100.00;101451.22;5017352;28;20088;-76
2023/10/14 02:22:57;;;;;;;38.72;36.03;;;;;;;8.26;100.00;101463.09;5017444;28;20460;-78
2023/10/14 02:25:37;;;;;;;42.53;39.92;;;;;;;8.29;100.00;101459.25;5025452;28;20045;-77
2023/10/14 02:28:06;;;;;;;39.03;36.85;;;;;;;8.65;100.00;101455.13;5029788;28;20052;-78
2023/10/14 02:30:51;;;;;;;38.40;36.00;;;;;;;8.75;100.00;101454.09;5017544;28;20169;-78
2023/10/14 02:33:19;;;;;;;35.50;33.38;;;;;;;8.61;100.00;101461.75;5018791;28;20046;-77
2023/10/14 02:35:46;;;;;;;38.20;36.00;;;;;;;8.66;100.00;101456.78;5027629;28;20096;-78
2023/10/14 02:38:12;;;;;;;39.67;36.72;;;;;;;8.72;100.00;101455.25;5021292;28;20052;-77
2023/10/14 02:40:41;;;;;;;45.47;42.97;;;;;;;8.79;100.00;101450.91;5019359;28;20116;-79
2023/10/14 02:43:08;;;;;;;35.15;33.05;;;;;;;8.67;100.00;101449.66;5028838;28;20054;-76
2023/10/14 02:45:58;;;;;;;36.90;34.60;;;;;;;8.78;100.00;101443.13;5021390;28;20045;-77
2023/10/14 02:48:49;;;;;;;38.45;35.85;;;;;;;8.56;100.00;101444.75;5026467;28;20054;-76
2023/10/14 02:51:43;;;;;;;39.08;36.78;;;;;;;8.43;100.00;101438.19;5025498;28;20544;-79
2023/10/14 02:54:26;;;;;;;36.78;34.70;;;;;;;8.47;100.00;101439.53;4985045;28;20046;-76
2023/10/14 02:56:59;;;;;;;37.85;35.45;;;;;;;8.22;100.00;101427.38;5009106;28;20046;-78
2023/10/14 02:59:36;;;;;;;32.85;30.95;;;;;;;8.42;100.00;101433.09;5021423;28;20137;-76
2023/10/14 03:05:08;;;;;;;32.42;30.52;;;;;;;8.35;100.00;101434.75;5020222;28;20501;-77
2023/10/14 03:07:50;;;;;;;35.58;33.28;;;;;;;8.36;100.00;101431.13;5022344;28;20784;-77
2023/10/14 03:10:28;;;;;;;31.33;29.60;;;;;;;8.40;100.00;101432.44;5020235;28;20057;-78
2023/10/14 03:12:59;;;;;;;32.15;30.25;;;;;;;8.30;100.00;101432.63;5023246;28;20124;-76
2023/10/14 03:15:38;;;;;;;31.23;29.42;;;;;;;8.03;100.00;101433.91;5017999;28;20053;-76
2023/10/14 03:18:06;;;;;;;29.80;28.10;;;;;;;8.30;100.00;101426.50;5020486;28;20820;-75
2023/10/14 03:20:39;;;;;;;30.52;28.67;;;;;;;8.46;100.00;101429.91;5027111;28;20124;-76
2023/10/14 03:23:19;;;;;;;32.13;30.23;;;;;;;8.36;100.00;101429.28;5016265;28;20050;-75
2023/10/14 03:25:47;;;;;;;31.02;29.13;;;;;;;8.46;100.00;101414.03;5008014;28;20481;-76
2023/10/14 03:28:15;;;;;;;32.10;29.95;;;;;;;8.19;100.00;101415.31;5027606;28;20437;-76
2023/10/14 03:30:55;;;;;;;28.45;26.65;;;;;;;8.23;100.00;101416.63;5028451;28;20083;-76
2023/10/14 03:33:23;;;;;;;36.38;34.05;;;;;;;8.29;100.00;101425.69;5027084;28;20128;-77
2023/10/14 03:36:00;;;;;;;31.80;29.70;;;;;;;8.43;100.00;101418.84;5021008;28;20107;-80
2023/10/14 03:38:39;;;;;;;36.50;34.30;;;;;;;8.41;100.00;101416.41;5024432;28;20124;-74
2023/10/14 03:41:17;;;;;;;34.00;32.00;;;;;;;8.28;100.00;101416.09;5020386;28;20042;-75
2023/10/14 03:43:50;;;;;;;31.02;29.13;;;;;;;8.01;100.00;101417.38;5016049;28;20042;-74
2023/10/14 03:46:23;;;;;;;38.30;36.10;;;;;;;8.14;100.00;101411.53;5027234;28;20555;-74
2023/10/14 03:48:54;;;;;;;32.35;30.55;;;;;;;8.12;100.00;101405.59;5013861;28;20084;-76
2023/10/14 03:51:24;;;;;;;33.90;32.00;;;;;;;7.77;100.00;101418.28;5019013;28;20049;-74
2023/10/14 03:53:52;;;;;;;31.98;30.27;;;;;;;7.65;100.00;101415.16;5022851;28;20106;-74
2023/10/14 03:56:21;;;;;;;30.70;28.90;;;;;;;7.82;100.00;101415.97;5024090;28;20525;-74
2023/10/14 03:58:55;;;;;;;30.80;29.02;;;;;;;7.94;100.00;101403.19;5019596;28;20050;-75
2023/10/14 04:01:24;;;;;;;28.85;27.15;;;;;;;7.93;100.00;101404.19;5021446;28;20061;-75
2023/10/14 04:03:53;;;;;;;31.50;29.50;;;;;;;7.58;100.00;101401.00;5020522;28;20497;-75
2023/10/14 04:06:21;;;;;;;29.17;27.38;;;;;;;7.63;100.00;101403.16;5023399;28;20046;-74
2023/10/14 04:08:48;;;;;;;30.48;27.85;;;;;;;7.87;100.00;101402.25;5023372;28;20061;-77
2023/10/14 04:11:17;;;;;;;30.73;28.70;;;;;;;7.89;100.00;101394.94;5021913;28;20414;-76
2023/10/14 04:13:58;;;;;;;30.27;28.13;;;;;;;7.91;100.00;101399.06;5035233;28;20102;-76
2023/10/14 04:16:47;;;;;;;32.03;29.70;;;;;;;7.80;100.00;101391.50;5030861;28;20608;-77
2023/10/14 04:19:27;;;;;;;41.45;38.75;;;;;;;7.55;100.00;101396.03;5021141;28;20042;-77
2023/10/14 04:22:00;;;;;;;39.67;37.22;;;;;;;7.56;100.00;101397.69;5025250;28;20049;-77
2023/10/14 04:24:45;;;;;;;28.83;27.33;;;;;;;7.56;100.00;101387.09;5023129;28;20120;-77
2023/10/14 04:27:22;;;;;;;26.13;24.10;;;;;;;7.88;100.00;101393.31;5026363;28;20058;-78
2023/10/14 04:29:53;;;;;;;25.23;23.42;;;;;;;7.89;100.00;101397.59;5017408;28;20065;-77
2023/10/14 04:32:27;;;;;;;23.70;22.17;;;;;;;7.63;100.00;101398.69;5028146;28;20068;-77
2023/10/14 04:34:56;;;;;;;22.33;20.73;;;;;;;7.85;100.00;101398.94;5037512;28;20107;-77
2023/10/14 04:37:27;;;;;;;23.50;21.80;;;;;;;8.11;100.00;101403.94;5041403;28;20107;-77
2023/10/14 04:39:59;;;;;;;22.48;21.08;;;;;;;8.42;100.00;101407.44;5030490;28;20056;-77
2023/10/14 04:42:35;;;;;;;24.20;22.65;;;;;;;8.15;100.00;101402.59;5014985;28;20554;-76
2023/10/14 04:45:07;;;;;;;22.95;21.40;;;;;;;8.08;100.00;101404.28;5017262;28;20049;-78
2023/10/14 04:47:38;;;;;;;23.58;22.00;;;;;;;8.21;100.00;101412.50;5014025;28;20057;-77
2023/10/14 04:50:13;;;;;;;22.05;20.55;;;;;;;8.53;100.00;101410.69;5031499;28;20306;-75
2023/10/14 04:52:44;;;;;;;22.00;20.50;;;;;;;8.56;100.00;101405.03;5022196;28;20044;-75
2023/10/14 04:55:28;;;;;;;21.55;20.05;;;;;;;8.79;100.00;101413.00;5024150;28;20046;-75
2023/10/14 05:00:45;;;;;;;24.17;22.52;;;;;;;8.63;100.00;101413.94;5028933;28;20115;-76
2023/10/14 05:03:14;;;;;;;24.45;22.75;;;;;;;9.05;100.00;101404.69;5025564;28;20070;-78
2023/10/14 05:05:43;;;;;;;28.50;25.90;;;;;;;9.53;100.00;101414.00;5013810;28;20104;-77
2023/10/14 05:08:15;;;;;;;34.20;26.58;;;;;;;9.77;100.00;101404.94;5031870;28;20140;-77
2023/10/14 05:10:43;;;;;;;36.38;33.08;;;;;;;9.95;100.00;101401.88;5019171;28;20046;-75
2023/10/14 05:13:11;;;;;;;26.65;24.73;;;;;;;10.08;100.00;101398.59;5027111;28;20423;-76
2023/10/14 05:15:52;;;;;;;23.90;22.40;;;;;;;10.14;100.00;101400.50;5030684;28;20164;-76
2023/10/14 05:18:28;;;;;;;26.15;24.25;;;;;;;10.27;100.00;101403.31;5019918;28;20054;-79
2023/10/14 05:21:03;;;;;;;27.58;25.80;;;;;;;10.43;100.00;101402.25;5026156;28;20046;-75
2023/10/14 05:23:33;;;;;;;31.90;28.85;;;;;;;10.30;100.00;101407.44;5026267;28;20471;-75
2023/10/14 05:26:06;;;;;;;24.80;23.23;;;;;;;10.71;100.00;101412.16;5015350;28;20221;-76
2023/10/14 05:28:36;;;;;;;24.83;23.42;;;;;;;10.90;100.00;101414.19;5021632;28;20045;-75
2023/10/14 05:31:08;;;;;;;31.40;28.40;;;;;;;10.90;100.00;101416.03;5021447;28;20527;-78
2023/10/14 05:33:37;;;;;;;29.80;27.70;;;;;;;11.10;100.00;101417.00;5024430;28;20432;-76
2023/10/14 05:36:05;;;;;;;28.25;26.33;;;;;;;11.15;100.00;101416.44;5022823;28;20123;-76
2023/10/14 05:38:32;;;;;;;27.15;25.15;;;;;;;11.27;100.00;101417.53;5032976;28;20104;-77
2023/10/14 05:41:00;;;;;;;26.55;24.50;;;;;;;11.39;100.00;101417.84;5028327;28;20549;-77
2023/10/14 05:43:28;;;;;;;25.35;23.75;;;;;;;11.53;100.00;101416.91;5018498;28;20050;-75
2023/10/14 05:45:55;;;;;;;23.35;21.75;;;;;;;11.56;100.00;101416.53;5025911;28;20108;-75
2023/10/14 05:48:27;;;;;;;23.48;22.08;;;;;;;11.76;100.00;101416.63;5021546;28;20810;-76
2023/10/14 05:51:02;;;;;;;25.90;24.20;;;;;;;11.79;100.00;101410.09;5021063;28;20073;-77
2023/10/14 05:53:53;;;;;;;25.00;23.30;;;;;;;12.13;100.00;101403.91;5023710;28;20562;-77
2023/10/14 05:56:20;;;;;;;24.17;22.20;;;;;;;12.16;100.00;101406.19;5030508;28;20081;-75
2023/10/14 05:58:48;;;;;;;23.67;22.23;;;;;;;12.25;100.00;101407.66;5026304;28;20056;-75
2023/10/14 06:01:16;;;;;;;23.35;21.92;;;;;;;12.38;100.00;101402.38;5027164;28;20060;-77
2023/10/14 06:03:44;;;;;;;22.60;21.10;;;;;;;12.60;100.00;101399.56;5031372;28;20422;-76
2023/10/14 06:06:14;;;;;;;24.60;22.90;;;;;;;12.81;100.00;101404.69;5023281;28;20050;-77
2023/10/14 06:08:46;;;;;;;23.38;21.77;;;;;;;13.14;100.00;101408.41;5024925;28;20049;-77
2023/10/14 06:11:13;;;;;;;27.67;22.20;;;;;;;13.19;100.00;101405.94;5030013;28;20053;-77
2023/10/14 06:13:40;;;;;;;24.33;22.42;;;;;;;13.53;100.00;101402.25;5021666;28;20064;-76
2023/10/14 06:16:09;;;;;;;23.77;22.17;;;;;;;13.63;100.00;101401.81;5030608;28;20057;-76
2023/10/14 06:18:37;;;;;;;26.38;24.23;;;;;;;13.90;100.00;101402.53;5034614;28;20057;-75
2023/10/14 06:21:08;;;;;;;23.55;21.95;;;;;;;14.01;100.00;101399.22;5016240;28;20148;-76
2023/10/14 06:23:39;;;;;;;24.50;22.90;;;;;;;14.21;100.00;101402.59;5027362;28;20501;-77
2023/10/14 06:26:11;;;;;;;24.80;23.10;;;;;;;14.48;100.00;101405.13;5017552;28;20069;-76
2023/10/14 06:28:38;;;;;;;23.73;22.23;;;;;;;14.54;100.00;101406.97;5021619;28;20136;-75
2023/10/14 06:31:05;;;;;;;24.92;23.33;;;;;;;14.60;100.00;101408.78;5032426;28;20095;-75
2023/10/14 06:33:32;;;;;;;24.15;22.60;;;;;;;14.95;100.00;101405.66;5033444;28;20058;-76
2023/10/14 06:36:03;;;;;;;24.20;22.70;;;;;;;15.20;100.00;101400.31;5023974;28;20057;-77
2023/10/14 06:38:33;;;;;;;24.65;23.08;;;;;;;15.48;100.00;101405.16;5025813;28;20057;-76
2023/10/14 06:41:02;;;;;;;26.13;24.23;;;;;;;15.70;100.00;101399.41;5022243;28;20057;-77
2023/10/14 06:43:33;;;;;;;24.20;22.50;;;;;;;15.99;100.00;101400.50;5021406;28;20057;-76
2023/10/14 06:46:04;;;;;;;24.25;22.75;;;;;;;16.20;100.00;101392.00;5028839;28;20061;-77
2023/10/14 06:48:31;;;;;;;23.15;21.75;;;;;;;16.54;100.00;101386.97;5031259;28;20079;-76
2023/10/14 06:51:06;;;;;;;25.00;23.50;;;;;;;16.71;100.00;101387.97;5023870;28;20073;-77
2023/10/14 06:53:34;;;;;;;27.08;25.20;;;;;;;17.06;100.00;101381.84;5024281;28;20049;-78
2023/10/14 06:56:04;;;;;;;24.10;22.70;;;;;;;17.82;100.00;101385.44;5013464;28;20429;-76
2023/10/14 06:58:33;;;;;;;23.77;22.27;;;;;;;18.01;100.00;101386.06;5028661;28;20057;-76
2023/10/14 07:01:00;;;;;;;26.13;24.42;;;;;;;18.10;100.00;101386.50;5027861;28;20502;-75
2023/10/14 07:03:28;;;;;;;24.77;23.17;;;;;;;18.27;100.00;101392.72;5020095;28;20049;-77
2023/10/14 07:05:58;;;;;;;26.35;24.85;;;;;;;19.06;100.00;101381.16;5025360;28;20503;-77
2023/10/14 07:08:27;;;;;;;25.00;23.50;;;;;;;19.44;100.00;101391.13;5020636;28;20169;-76
2023/10/14 07:11:00;;;;;;;24.92;23.42;;;;;;;19.63;100.00;101383.56;5017082;28;20050;-75
2023/10/14 07:13:38;;;;;;;23.30;21.80;;;;;;;19.62;100.00;101386.53;5027856;28;20080;-75
2023/10/14 07:16:06;;;;;;;25.75;24.15;;;;;;;19.76;100.00;101384.28;5012025;28;20054;-75
2023/10/14 07:18:36;;;;;;;23.58;22.05;;;;;;;20.43;100.00;101367.78;5024512;28;20841;-76
2023/10/14 07:21:03;;;;;;;23.92;22.33;;;;;;;20.72;100.00;101368.31;5026964;28;20536;-76
2023/10/14 07:23:33;;;;;;;24.60;23.00;;;;;;;20.80;100.00;101370.53;5022009;28;20128;-77
2023/10/14 07:26:09;;;;;;;27.48;25.77;;;;;;;21.43;100.00;101364.50;5032156;28;20081;-76
2023/10/14 07:28:42;;;;;;;25.67;23.75;;;;;;;21.61;100.00;101363.22;5023660;28;20053;-75
2023/10/14 07:31:10;;;;;;;23.25;21.75;;;;;;;21.56;100.00;101358.59;5018509;28;20053;-76
2023/10/14 07:33:38;;;;;;;24.52;23.02;;;;;;;21.94;100.00;101356.56;5029453;28;20046;-76
2023/10/14 07:36:12;;;;;;;25.13;23.63;;;;;;;22.00;100.00;101360.91;5022739;28;20136;-76
2023/10/14 07:38:48;;;;;;;24.35;22.85;;;;;;;22.04;100.00;101353.88;5020916;28;20058;-75
2023/10/14 07:41:15;;;;;;;25.13;23.55;;;;;;;22.31;100.00;101358.31;5021486;28;20045;-76
2023/10/14 07:43:43;;;;;;;24.15;22.55;;;;;;;22.43;100.00;101350.72;5022461;28;20056;-76
2023/10/14 07:46:12;;;;;;;24.58;22.98;;;;;;;21.47;100.00;101343.97;5016464;28;20062;-76
2023/10/14 07:48:41;;;;;;;24.67;23.08;;;;;;;22.97;100.00;101349.38;5016917;28;20423;-77
2023/10/14 07:51:09;;;;;;;24.05;22.55;;;;;;;23.85;100.00;101342.59;5027186;28;20456;-76
2023/10/14 07:53:36;;;;;;;23.15;21.50;;;;;;;23.62;100.00;101347.53;5020550;28;20041;-76
2023/10/14 07:56:06;;;;;;;24.10;22.55;;;;;;;24.09;100.00;101350.84;5024296;28;20505;-76
2023/10/14 07:58:33;;;;;;;23.75;22.15;;;;;;;24.34;100.00;101344.44;5026926;28;20053;-76
2023/10/14 08:01:06;;;;;;;24.50;22.70;;;;;;;24.70;100.00;101339.53;5026057;28;20049;-76
2023/10/14 08:03:36;;;;;;;;;;;;;;;24.34;100.00;101334.38;5021065;28;20057;-78
2023/10/14 08:06:05;;;;;;;24.42;22.73;;;;;;;25.06;100.00;101329.13;5015072;28;19979;-78
2023/10/14 08:08:42;;;;;;;24.65;22.95;;;;;;;25.45;99.05;101321.94;5022175;28;20115;-77
2023/10/14 08:11:12;;;;;;;24.90;23.10;;;;;;;25.47;83.60;101315.06;5018751;28;20064;-77
2023/10/14 08:13:44;;;;;;;25.23;23.40;;;;;;;25.09;98.94;101320.41;5023470;28;20156;-76
2023/10/14 08:16:13;;;;;;;25.33;23.63;;;;;;;24.68;83.13;101317.28;5021263;28;20516;-77
2023/10/14 08:18:44;;;;;;;25.08;23.27;;;;;;;23.66;88.64;101316.09;5014301;28;20077;-77
2023/10/14 08:21:11;;;;;;;24.30;22.60;;;;;;;23.59;95.17;101318.28;5021750;28;20053;-76
2023/10/14 08:23:38;;;;;;;24.75;22.95;;;;;;;24.79;100.00;101312.56;5020434;28;20136;-77
2023/10/14 08:26:12;;;;;;;24.90;23.10;;;;;;;25.16;86.31;101301.06;5015617;28;20056;-77
2023/10/14 08:28:39;;;;;;;25.25;23.45;;;;;;;23.69;87.71;101309.25;5019132;28;20116;-77
2023/10/14 08:31:08;;;;;;;25.35;23.35;;;;;;;22.15;100.00;101304.16;5019666;28;20060;-77
2023/10/14 08:33:36;;;;;;;32.83;22.23;;;;;;;25.96;94.65;101294.84;5017671;28;20050;-77
2023/10/14 08:36:09;;;;;;;25.70;23.70;;;;;;;23.89;99.37;101290.19;5023374;28;20456;-76
2023/10/14 08:38:36;;;;;;;24.63;22.83;;;;;;;24.11;78.55;101297.09;5013545;28;20054;-75
2023/10/14 08:41:03;;;;;;;24.45;22.30;;;;;;;23.38;100.00;101295.06;5025493;28;20111;-75
2023/10/14 08:43:31;;;;;;;24.17;22.38;;;;;;;23.34;96.58;101286.69;5023873;28;20085;-77
2023/10/14 08:46:08;;;;;;;24.08;22.48;;;;;;;24.13;93.21;101289.50;5016145;28;20497;-75
2023/10/14 08:48:38;;;;;;;24.00;22.40;;;;;;;24.98;98.61;101275.41;5019224;28;20053;-76
2023/10/14 08:51:05;;;;;;;23.75;22.15;;;;;;;26.42;63.37;101264.16;5020217;28;20051;-76
2023/10/14 08:53:40;;;;;;;27.70;25.30;;;;;;;27.72;68.45;101269.50;5021984;28;20467;-76
2023/10/14 08:56:07;;;;;;;25.20;23.40;;;;;;;28.11;66.37;101270.75;5020328;28;20057;-76
2023/10/14 08:58:36;;;;;;;24.15;22.35;;;;;;;28.16;63.70;101263.25;5021233;28;20552;-77
2023/10/14 09:01:05;;;;;;;25.63;23.92;;;;;;;29.25;56.06;101246.38;5010119;28;20045;-75
2023/10/14 09:03:32;;;;;;;24.95;23.10;;;;;;;28.44;62.43;101253.03;5019959;28;20163;-76
2023/10/14 09:06:01;;;;;;;26.00;24.00;;;;;;;28.44;60.26;101247.56;5023773;28;20069;-74
2023/10/14 09:08:32;;;;;;;27.52;25.40;;;;;;;29.06;54.44;101234.94;5024231;28;20056;-76
2023/10/14 09:11:00;;;;;;;23.83;22.02;;;;;;;29.14;53.76;101234.97;5009708;28;20045;-75
2023/10/14 09:13:27;;;;;;;25.52;23.73;;;;;;;29.24;52.11;101233.06;5020920;28;20124;-75
2023/10/14 09:15:57;;;;;;;24.70;22.90;;;;;;;28.54;56.62;101227.34;5015821;28;20060;-76
2023/10/14 09:18:27;;;;;;;24.63;22.83;;;;;;;28.77;56.78;101219.88;5022455;28;20041;-77
2023/10/14 09:21:00;;;;;;;25.50;23.58;;;;;;;29.14;52.62;101212.25;5021078;28;20053;-75
2023/10/14 09:23:32;;;;;;;24.30;22.50;;;;;;;29.54;50.57;101209.41;5024405;28;20057;-75
2023/10/14 09:26:01;;;;;;;;;;;;;;;29.42;45.79;101208.13;5027491;28;20565;-76
2023/10/14 09:28:32;;;;;;;21.55;19.85;;;;;;;29.48;48.97;101200.56;5015174;28;19921;-77
2023/10/14 09:30:59;;;;;;;21.20;19.60;;;;;;;30.25;49.48;101203.53;5022489;28;20056;-77
2023/10/14 09:33:28;;;;;;;23.40;21.35;;;;;;;28.41;52.74;101195.47;5020613;28;20432;-77
2023/10/14 09:35:58;;;;;;;22.40;20.80;;;;;;;27.11;68.06;101196.09;5021296;28;20077;-75
2023/10/14 09:38:26;;;;;;;24.60;22.65;;;;;;;29.02;53.51;101187.47;5013081;28;20110;-75
2023/10/14 09:40:57;;;;;;;24.60;22.80;;;;;;;28.81;55.04;101182.59;5022522;28;20051;-75
2023/10/14 09:43:24;;;;;;;24.92;23.13;;;;;;;28.55;54.65;101177.03;5039254;28;20049;-76
2023/10/14 09:45:59;;;;;;;25.42;23.52;;;;;;;28.75;51.31;101181.13;5018551;28;20498;-75
2023/10/14 09:48:27;;;;;;;23.50;21.80;;;;;;;29.77;49.12;101175.28;5018210;28;20099;-76
2023/10/14 09:50:55;;;;;;;24.65;22.85;;;;;;;30.84;44.58;101170.72;5021203;28;20520;-76
2023/10/14 09:53:26;;;;;;;23.55;21.85;;;;;;;30.41;46.34;101168.19;5026949;28;20057;-76
2023/10/14 09:56:18;;;;;;;24.23;22.42;;;;;;;32.00;40.50;101160.88;5021971;28;20111;-75
2023/10/14 09:58:47;;;;;;;25.27;22.52;;;;;;;31.62;40.77;101161.09;5022664;28;20049;-76
2023/10/14 10:01:15;;;;;;;25.52;23.63;;;;;;;30.21;44.31;101147.81;5026902;28;20137;-76
2023/10/14 10:03:46;;;;;;;23.77;21.98;;;;;;;31.05;41.65;101140.59;5023847;28;20050;-75
2023/10/14 10:06:35;;;;;;;25.60;23.70;;;;;;;29.41;49.11;101134.56;5026998;28;20490;-76
2023/10/14 10:09:57;;;;;;;25.98;23.77;;;;;;;29.53;40.11;101137.44;5013986;28;20120;-76
2023/10/14 10:12:28;;;;;;;27.75;25.65;;;;;;;31.92;43.14;101131.56;5023551;28;20052;-76
2023/10/14 10:14:58;;;;;;;25.85;23.80;;;;;;;33.23;38.24;101122.31;5017001;28;20056;-75
2023/10/14 10:17:27;;;;;;;25.45;23.63;;;;;;;31.44;38.00;101125.59;5022881;28;20453;-76
2023/10/14 10:20:09;;;;;;;26.10;24.20;;;;;;;29.74;44.42;101123.13;5021343;28;20605;-74
2023/10/14 10:22:45;;;;;;;25.88;23.98;;;;;;;28.79;45.84;101112.97;5026966;28;20775;-77
2023/10/14 10:25:14;;;;;;;25.02;23.13;;;;;;;31.32;40.50;101108.22;5014954;28;20762;-77
2023/10/14 10:27:43;;;;;;;24.60;22.40;;;;;;;32.11;38.99;101100.81;5018289;28;20046;-76
2023/10/14 10:30:16;;;;;;;25.15;23.05;;;;;;;31.25;39.43;101095.84;5024000;28;20053;-75
2023/10/14 10:32:49;;;;;;;24.90;22.88;;;;;;;32.35;38.95;101078.03;5017464;28;20076;-76
2023/10/14 10:35:18;;;;;;;25.80;23.70;;;;;;;32.35;37.82;101070.59;5021754;28;20059;-76
2023/10/14 10:37:50;;;;;;;26.50;24.40;;;;;;;32.79;37.41;101075.44;5024268;28;20494;-76
2023/10/14 10:40:26;;;;;;;26.83;24.75;;;;;;;32.41;37.80;101076.66;5029045;28;20061;-75
2023/10/14 10:43:06;;;;;;;26.25;24.33;;;;;;;29.78;43.04;101061.13;5021068;28;20045;-76
2023/10/14 10:45:42;;;;;;;25.20;23.30;;;;;;;31.76;38.23;101056.47;5022200;28;20088;-75
2023/10/14 10:48:14;;;;;;;25.15;23.25;;;;;;;31.22;37.04;101060.88;5020428;28;20049;-76
2023/10/14 10:50:42;;;;;;;24.33;22.50;;;;;;;31.74;38.33;101053.25;5027020;28;20058;-77
2023/10/14 10:53:32;;;;;;;25.90;24.10;;;;;;;32.90;36.06;101045.50;5025818;28;20463;-76
2023/10/14 10:55:59;;;;;;;28.20;26.15;;;;;;;32.38;35.96;101033.38;5006993;28;20052;-76
2023/10/14 10:58:28;;;;;;;26.20;24.30;;;;;;;29.10;41.19;101039.84;5016478;28;20063;-75
2023/10/14 11:00:55;;;;;;;25.90;24.00;;;;;;;30.01;44.21;101031.56;5026052;28;20045;-75
2023/10/14 11:03:23;;;;;;;26.83;24.83;;;;;;;31.43;38.96;101022.44;5019185;28;20484;-74
2023/10/14 11:05:50;;;;;;;26.48;24.48;;;;;;;30.79;41.85;101020.94;5018415;28;20646;-77
2023/10/14 11:08:17;;;;;;;27.00;24.92;;;;;;;31.44;38.66;101015.81;5022881;28;20049;-76
2023/10/14 11:10:45;;;;;;;27.45;25.15;;;;;;;32.86;34.30;101012.38;5023420;28;20046;-76
2023/10/14 11:13:16;;;;;;;25.20;23.30;;;;;;;31.71;37.37;101008.06;5012705;28;20053;-76
2023/10/14 11:15:46;;;;;;;25.08;23.17;;;;;;;30.55;36.87;101007.06;5016280;28;20088;-76
2023/10/14 11:18:18;;;;;;;26.60;24.60;;;;;;;32.66;35.00;100999.66;5011706;28;20136;-76
2023/10/14 11:20:53;;;;;;;32.05;29.75;;;;;;;32.78;34.87;101000.41;5016900;28;20512;-76
2023/10/14 11:23:21;;;;;;;30.05;27.98;;;;;;;32.63;35.41;100981.91;5015078;28;20054;-76
2023/10/14 11:25:55;;;;;;;29.40;27.40;;;;;;;32.55;36.49;100985.59;5022700;28;20529;-76
2023/10/14 11:28:26;;;;;;;29.30;27.20;;;;;;;31.30;32.92;100989.81;5015426;28;20056;-76
2023/10/14 11:30:55;;;;;;;29.27;27.17;;;;;;;31.87;35.52;100978.78;5024352;28;20045;-76
2023/10/14 11:33:23;;;;;;;27.10;25.10;;;;;;;32.90;33.56;100971.25;5022778;28;20045;-75
2023/10/14 11:35:50;;;;;;;27.55;25.45;;;;;;;32.18;32.33;100974.66;5015454;28;20488;-76